Time;durP1;ratioP1;P1;durP2;ratioP2;P2;SDS_P1;SDS_P2;PMS_P1;PMS_P2;Temp;Humidity;BMP_temperature;BMP_pressure;BME280_temperature;BME280_humidity;BME280_pressure;Samples;Min_cycle;Max_cycle;Signal;HPM_P1;HPM_P2
2021/10/06 00:02:19;;;;;;;10.35;1.90;;;;;;;;;;4949934;28;20106;-70
2021/10/06 00:04:45;;;;;;;18.50;2.45;;;;;;;;;;4948632;28;20059;-71
2021/10/06 00:07:11;;;;;;;20.13;2.50;;;;;;;;;;4952960;28;20034;-72
2021/10/06 00:09:37;;;;;;;16.30;2.47;;;;;;;;;;4952558;28;20086;-72
2021/10/06 00:12:03;;;;;;;15.10;2.72;;;;;;;;;;4940765;28;20035;-71
2021/10/06 00:14:29;;;;;;;11.45;1.98;;;;;;;;;;4951938;28;20102;-72
2021/10/06 00:16:55;;;;;;;11.85;2.17;;;;;;;;;;4947704;28;20035;-71
2021/10/06 00:19:21;;;;;;;15.60;2.30;;;;;;;;;;4947806;28;20035;-71
2021/10/06 00:21:47;;;;;;;12.57;2.17;;;;;;;;;;4944260;28;20039;-71
2021/10/06 00:24:13;;;;;;;16.98;2.80;;;;;;;;;;4948456;28;20110;-70
2021/10/06 00:26:39;;;;;;;17.27;3.45;;;;;;;;;;4951853;28;20024;-72
2021/10/06 00:29:08;;;;;;;12.55;1.95;;;;;;;;;;4945921;28;20015;-71
2021/10/06 00:31:34;;;;;;;17.55;3.53;;;;;;;;;;4948483;28;20027;-72
2021/10/06 00:34:00;;;;;;;15.95;2.47;;;;;;;;;;4948801;28;20074;-71
2021/10/06 00:36:26;;;;;;;11.43;2.75;;;;;;;;;;4950509;28;20027;-71
2021/10/06 00:38:52;;;;;;;10.10;1.95;;;;;;;;;;4946753;28;20066;-69
2021/10/06 00:41:18;;;;;;;8.00;2.10;;;;;;;;;;4952165;28;20031;-70
2021/10/06 00:43:44;;;;;;;11.00;2.55;;;;;;;;;;4949382;28;20125;-70
2021/10/06 00:46:10;;;;;;;15.50;2.45;;;;;;;;;;4945818;28;20492;-70
2021/10/06 00:48:36;;;;;;;12.48;1.73;;;;;;;;;;4946139;28;20055;-72
2021/10/06 00:51:02;;;;;;;22.40;2.78;;;;;;;;;;4947842;28;20031;-69
2021/10/06 00:53:29;;;;;;;22.83;3.58;;;;;;;;;;4948520;28;20031;-73
2021/10/06 00:55:55;;;;;;;22.08;2.50;;;;;;;;;;4947234;28;20086;-71
2021/10/06 00:58:21;;;;;;;15.52;2.72;;;;;;;;;;4940705;28;20639;-70
2021/10/06 01:00:48;;;;;;;11.25;2.33;;;;;;;;;;4946034;28;20031;-70
2021/10/06 01:03:15;;;;;;;13.80;2.78;;;;;;;;;;4938387;28;20293;-71
2021/10/06 01:05:41;;;;;;;15.98;1.88;;;;;;;;;;4947308;28;20634;-72
2021/10/06 01:08:07;;;;;;;15.85;2.40;;;;;;;;;;4945060;28;20554;-72
2021/10/06 01:10:34;;;;;;;18.20;2.75;;;;;;;;;;4941514;28;20051;-72
2021/10/06 01:13:00;;;;;;;13.85;2.03;;;;;;;;;;4946431;28;20082;-73
2021/10/06 01:15:27;;;;;;;15.63;2.25;;;;;;;;;;4947387;28;20024;-70
2021/10/06 01:17:53;;;;;;;12.60;2.25;;;;;;;;;;4943566;28;20410;-72
2021/10/06 01:20:19;;;;;;;16.58;1.80;;;;;;;;;;4943643;28;20047;-72
2021/10/06 01:22:45;;;;;;;17.15;2.92;;;;;;;;;;4951411;28;20023;-71
2021/10/06 01:25:14;;;;;;;15.63;3.67;;;;;;;;;;4951873;28;20030;-72
2021/10/06 01:27:40;;;;;;;12.57;2.40;;;;;;;;;;4945407;28;20066;-70
2021/10/06 01:30:08;;;;;;;19.55;3.33;;;;;;;;;;4947297;28;20028;-72
2021/10/06 01:32:36;;;;;;;23.40;3.45;;;;;;;;;;4952768;28;20028;-73
2021/10/06 01:35:02;;;;;;;10.40;2.00;;;;;;;;;;4945694;28;20035;-70
2021/10/06 01:37:28;;;;;;;20.63;3.88;;;;;;;;;;4959116;28;20034;-71
2021/10/06 01:39:54;;;;;;;18.20;2.92;;;;;;;;;;4949918;28;20042;-70
2021/10/06 01:42:21;;;;;;;18.77;4.13;;;;;;;;;;4950096;28;20062;-72
2021/10/06 01:44:47;;;;;;;30.25;3.78;;;;;;;;;;4952721;28;20469;-70
2021/10/06 01:47:24;;;;;;;14.30;3.38;;;;;;;;;;4955144;28;20022;-71
2021/10/06 01:49:51;;;;;;;15.18;3.13;;;;;;;;;;4948590;28;20414;-73
2021/10/06 01:52:17;;;;;;;21.75;4.38;;;;;;;;;;4953541;28;20027;-73
2021/10/06 01:54:43;;;;;;;20.70;4.32;;;;;;;;;;4952728;28;20042;-71
2021/10/06 01:57:09;;;;;;;22.35;3.92;;;;;;;;;;4961757;28;20034;-71
2021/10/06 01:59:36;;;;;;;33.97;5.03;;;;;;;;;;4948107;28;20044;-70
2021/10/06 02:02:02;;;;;;;28.60;5.45;;;;;;;;;;4950459;28;20110;-70
2021/10/06 02:04:28;;;;;;;25.08;4.30;;;;;;;;;;4951100;28;20027;-70
2021/10/06 02:06:54;;;;;;;27.90;5.00;;;;;;;;;;4949108;28;20019;-71
2021/10/06 02:09:20;;;;;;;16.40;3.58;;;;;;;;;;4949881;28;20043;-68
2021/10/06 02:11:46;;;;;;;31.90;5.43;;;;;;;;;;4950513;28;20031;-71
2021/10/06 02:14:13;;;;;;;30.67;5.13;;;;;;;;;;4950312;28;20515;-70
2021/10/06 02:16:40;;;;;;;27.92;4.25;;;;;;;;;;4952246;28;20039;-70
2021/10/06 02:19:06;;;;;;;25.65;4.50;;;;;;;;;;4949528;28;20558;-69
2021/10/06 02:21:32;;;;;;;24.35;3.95;;;;;;;;;;4948552;28;20042;-67
2021/10/06 02:23:58;;;;;;;24.90;4.10;;;;;;;;;;4953140;28;20646;-69
2021/10/06 02:26:24;;;;;;;23.95;7.07;;;;;;;;;;4952417;28;20449;-70
2021/10/06 02:28:50;;;;;;;36.45;5.57;;;;;;;;;;4940535;28;20255;-69
2021/10/06 02:31:16;;;;;;;41.92;6.68;;;;;;;;;;4952210;28;20555;-70
2021/10/06 02:33:42;;;;;;;29.02;5.20;;;;;;;;;;4950181;28;20527;-71
2021/10/06 02:36:08;;;;;;;31.85;5.22;;;;;;;;;;4950107;28;20500;-70
2021/10/06 02:38:34;;;;;;;23.42;4.55;;;;;;;;;;4948450;28;20031;-71
2021/10/06 02:41:00;;;;;;;34.55;5.47;;;;;;;;;;4949413;28;20027;-70
2021/10/06 02:43:26;;;;;;;22.30;4.65;;;;;;;;;;4952937;28;20034;-71
2021/10/06 02:45:52;;;;;;;36.17;5.40;;;;;;;;;;4950761;28;20039;-70
2021/10/06 02:48:21;;;;;;;22.85;3.35;;;;;;;;;;4949161;28;20324;-71
2021/10/06 02:50:47;;;;;;;24.88;4.85;;;;;;;;;;4951030;28;20086;-71
2021/10/06 02:53:13;;;;;;;36.60;5.20;;;;;;;;;;4950585;28;20563;-70
2021/10/06 02:55:39;;;;;;;25.65;5.03;;;;;;;;;;4953875;28;20102;-71
2021/10/06 02:58:05;;;;;;;21.67;4.10;;;;;;;;;;4948965;28;20491;-73
2021/10/06 03:00:31;;;;;;;32.22;5.25;;;;;;;;;;4956544;28;20047;-72
2021/10/06 03:02:57;;;;;;;20.33;4.80;;;;;;;;;;4949618;28;20023;-69
2021/10/06 03:05:24;;;;;;;29.60;4.43;;;;;;;;;;4951873;29;20396;-70
2021/10/06 03:07:50;;;;;;;22.30;4.40;;;;;;;;;;4951821;28;20082;-70
2021/10/06 03:10:16;;;;;;;30.80;4.50;;;;;;;;;;4947315;28;20062;-69
2021/10/06 03:12:42;;;;;;;23.67;5.35;;;;;;;;;;4955946;28;20393;-69
2021/10/06 03:15:09;;;;;;;28.83;5.35;;;;;;;;;;4953794;28;20039;-71
2021/10/06 03:17:35;;;;;;;25.25;4.30;;;;;;;;;;4950477;28;20396;-71
2021/10/06 03:20:01;;;;;;;19.65;5.18;;;;;;;;;;4952162;28;20389;-70
2021/10/06 03:22:27;;;;;;;29.65;3.80;;;;;;;;;;4954484;28;20250;-71
2021/10/06 03:24:53;;;;;;;21.65;4.10;;;;;;;;;;4951375;28;20042;-69
2021/10/06 03:27:19;;;;;;;19.95;4.15;;;;;;;;;;4962677;28;20031;-71
2021/10/06 03:29:45;;;;;;;33.38;5.30;;;;;;;;;;4942517;28;20055;-69
2021/10/06 03:32:12;;;;;;;17.38;3.63;;;;;;;;;;4951637;28;20551;-69
2021/10/06 03:34:38;;;;;;;21.23;3.00;;;;;;;;;;4948912;28;20073;-71
2021/10/06 03:37:04;;;;;;;23.75;4.47;;;;;;;;;;4942188;28;20032;-70
2021/10/06 03:39:30;;;;;;;40.20;4.30;;;;;;;;;;4954432;28;20035;-70
2021/10/06 03:41:56;;;;;;;19.77;3.92;;;;;;;;;;4947791;28;20114;-70
2021/10/06 03:44:22;;;;;;;36.45;5.82;;;;;;;;;;4950626;28;20122;-69
2021/10/06 03:46:48;;;;;;;24.77;4.10;;;;;;;;;;4950238;28;20050;-70
2021/10/06 03:49:14;;;;;;;34.25;4.43;;;;;;;;;;4948540;28;20023;-70
2021/10/06 03:51:40;;;;;;;29.98;4.45;;;;;;;;;;4950710;28;20027;-69
2021/10/06 03:54:06;;;;;;;32.45;6.60;;;;;;;;;;4947853;28;20043;-70
2021/10/06 03:56:32;;;;;;;33.30;5.45;;;;;;;;;;4950804;28;20601;-69
2021/10/06 03:58:58;;;;;;;32.20;6.20;;;;;;;;;;4944429;28;20027;-68
2021/10/06 04:01:24;;;;;;;24.77;5.05;;;;;;;;;;4950329;28;20038;-69
2021/10/06 04:03:50;;;;;;;35.78;6.07;;;;;;;;;;4946725;28;20550;-68
2021/10/06 04:06:16;;;;;;;35.53;5.32;;;;;;;;;;4949189;28;20154;-69
2021/10/06 04:08:42;;;;;;;23.73;4.60;;;;;;;;;;4946497;28;20076;-71
2021/10/06 04:11:08;;;;;;;24.10;4.70;;;;;;;;;;4949058;28;20123;-68
2021/10/06 04:13:34;;;;;;;24.38;4.72;;;;;;;;;;4951266;28;20030;-70
2021/10/06 04:16:00;;;;;;;29.10;5.20;;;;;;;;;;4952315;28;20020;-69
2021/10/06 04:18:26;;;;;;;23.17;3.55;;;;;;;;;;4953239;28;20547;-68
2021/10/06 04:20:52;;;;;;;27.13;5.32;;;;;;;;;;4945310;28;20035;-70
2021/10/06 04:23:18;;;;;;;22.30;4.97;;;;;;;;;;4949838;28;20035;-68
2021/10/06 04:25:44;;;;;;;36.80;5.90;;;;;;;;;;4949753;28;20097;-68
2021/10/06 04:28:10;;;;;;;36.88;6.38;;;;;;;;;;4947729;28;20023;-68
2021/10/06 04:30:36;;;;;;;40.28;5.78;;;;;;;;;;4948385;28;20051;-69
2021/10/06 04:33:03;;;;;;;31.13;6.00;;;;;;;;;;4949590;28;20050;-68
2021/10/06 04:35:29;;;;;;;23.58;3.85;;;;;;;;;;4948871;28;20047;-71
2021/10/06 04:37:55;;;;;;;29.85;6.05;;;;;;;;;;4953932;28;20032;-71
2021/10/06 04:40:21;;;;;;;38.30;5.57;;;;;;;;;;4945394;28;20040;-70
2021/10/06 04:42:48;;;;;;;21.75;4.03;;;;;;;;;;4945846;28;20407;-71
2021/10/06 04:45:14;;;;;;;20.17;4.72;;;;;;;;;;4946549;28;20023;-68
2021/10/06 04:47:41;;;;;;;32.15;5.32;;;;;;;;;;4948217;28;20031;-71
2021/10/06 04:50:07;;;;;;;33.40;5.40;;;;;;;;;;4938867;28;20109;-70
2021/10/06 04:52:33;;;;;;;33.17;5.45;;;;;;;;;;4944843;28;20027;-70
2021/10/06 04:54:59;;;;;;;25.40;4.82;;;;;;;;;;4947399;28;20046;-71
2021/10/06 04:57:25;;;;;;;26.90;5.30;;;;;;;;;;4952926;28;20026;-70
2021/10/06 04:59:51;;;;;;;32.78;5.07;;;;;;;;;;4946565;28;20061;-71
2021/10/06 05:02:17;;;;;;;21.90;4.45;;;;;;;;;;4948816;28;20023;-69
2021/10/06 05:04:43;;;;;;;25.38;4.88;;;;;;;;;;4965662;28;20042;-71
2021/10/06 05:07:09;;;;;;;25.90;4.70;;;;;;;;;;4956069;28;20032;-70
2021/10/06 05:09:35;;;;;;;21.80;4.22;;;;;;;;;;4959285;28;20058;-71
2021/10/06 05:12:01;;;;;;;28.95;6.30;;;;;;;;;;4954202;28;20027;-71
2021/10/06 05:14:30;;;;;;;29.05;5.70;;;;;;;;;;4953889;28;20031;-71
2021/10/06 05:16:56;;;;;;;29.67;6.28;;;;;;;;;;4953796;28;20086;-72
2021/10/06 05:19:22;;;;;;;35.58;4.50;;;;;;;;;;4951064;28;20410;-71
2021/10/06 05:21:49;;;;;;;26.27;4.85;;;;;;;;;;4955107;28;20062;-71
2021/10/06 05:24:15;;;;;;;19.95;3.95;;;;;;;;;;4950252;28;20061;-72
2021/10/06 05:26:41;;;;;;;24.17;5.50;;;;;;;;;;4941036;28;20393;-72
2021/10/06 05:29:07;;;;;;;29.33;5.55;;;;;;;;;;4947196;28;20407;-70
2021/10/06 05:34:01;;;;;;;19.02;5.30;;;;;;;;;;4955768;28;20520;-73
2021/10/06 05:36:27;;;;;;;23.70;3.95;;;;;;;;;;4958080;28;20453;-73
2021/10/06 05:38:53;;;;;;;19.58;3.95;;;;;;;;;;4957858;28;20483;-73
2021/10/06 05:41:19;;;;;;;32.35;4.80;;;;;;;;;;4953631;28;20379;-73
2021/10/06 05:43:45;;;;;;;26.65;4.28;;;;;;;;;;4951614;28;20418;-73
2021/10/06 05:46:11;;;;;;;24.92;4.45;;;;;;;;;;4953579;28;20371;-73
2021/10/06 05:48:37;;;;;;;22.67;3.92;;;;;;;;;;4952050;28;20090;-73
2021/10/06 05:51:03;;;;;;;22.00;3.42;;;;;;;;;;4949533;28;20474;-73
2021/10/06 05:53:29;;;;;;;22.02;3.60;;;;;;;;;;4947942;28;20032;-72
2021/10/06 05:55:55;;;;;;;26.05;4.10;;;;;;;;;;4947550;28;20061;-73
2021/10/06 05:58:23;;;;;;;22.80;4.43;;;;;;;;;;4953559;28;20703;-74
2021/10/06 06:00:49;;;;;;;22.42;4.25;;;;;;;;;;4950991;28;20035;-72
2021/10/06 06:03:15;;;;;;;32.33;5.95;;;;;;;;;;4952303;28;20516;-73
2021/10/06 06:05:41;;;;;;;26.50;4.00;;;;;;;;;;4959764;28;20077;-73
2021/10/06 06:08:08;;;;;;;15.63;2.90;;;;;;;;;;4947323;28;20051;-73
2021/10/06 06:10:34;;;;;;;19.48;3.60;;;;;;;;;;4947574;28;20086;-72
2021/10/06 06:13:00;;;;;;;22.52;4.93;;;;;;;;;;4952585;28;20023;-73
2021/10/06 06:15:27;;;;;;;27.88;4.75;;;;;;;;;;4950906;28;20034;-74
2021/10/06 06:17:53;;;;;;;36.40;5.03;;;;;;;;;;4946965;29;20039;-72
2021/10/06 06:20:23;;;;;;;15.65;4.50;;;;;;;;;;4950450;28;20454;-72
2021/10/06 06:22:50;;;;;;;29.27;4.75;;;;;;;;;;4953398;28;20035;-72
2021/10/06 06:25:16;;;;;;;30.17;4.20;;;;;;;;;;4959140;28;20075;-73
2021/10/06 06:27:42;;;;;;;25.42;4.47;;;;;;;;;;4951691;28;20118;-73
2021/10/06 06:30:09;;;;;;;34.13;4.95;;;;;;;;;;4947609;28;20304;-75
2021/10/06 06:32:35;;;;;;;31.77;4.72;;;;;;;;;;4950996;28;20055;-75
2021/10/06 06:35:01;;;;;;;14.70;4.20;;;;;;;;;;4956436;28;20405;-73
2021/10/06 06:37:27;;;;;;;27.58;4.68;;;;;;;;;;4954288;28;20043;-73
2021/10/06 06:39:53;;;;;;;17.58;3.78;;;;;;;;;;4956941;28;20078;-73
2021/10/06 06:42:19;;;;;;;29.80;4.13;;;;;;;;;;4950424;28;20023;-73
2021/10/06 06:44:45;;;;;;;32.95;5.43;;;;;;;;;;4947480;28;20106;-73
2021/10/06 06:47:11;;;;;;;38.38;5.20;;;;;;;;;;4951509;29;20454;-74
2021/10/06 06:49:37;;;;;;;10.95;2.80;;;;;;;;;;4943771;29;20023;-73
2021/10/06 06:52:06;;;;;;;21.35;4.40;;;;;;;;;;4950693;28;20027;-72
2021/10/06 06:54:32;;;;;;;32.00;5.70;;;;;;;;;;4951942;28;20071;-76
2021/10/06 06:56:58;;;;;;;22.17;3.47;;;;;;;;;;4945547;28;20035;-73
2021/10/06 06:59:24;;;;;;;19.02;3.75;;;;;;;;;;4949199;28;20597;-74
2021/10/06 07:01:51;;;;;;;25.35;5.93;;;;;;;;;;4950675;28;20023;-72
2021/10/06 07:04:17;;;;;;;17.85;2.90;;;;;;;;;;4950948;28;20058;-74
2021/10/06 07:06:43;;;;;;;21.55;2.90;;;;;;;;;;4946129;28;20059;-73
2021/10/06 07:09:09;;;;;;;23.60;3.35;;;;;;;;;;4944037;28;20054;-73
2021/10/06 07:11:35;;;;;;;24.15;3.20;;;;;;;;;;4950700;28;20393;-73
2021/10/06 07:14:01;;;;;;;24.75;3.17;;;;;;;;;;4949574;28;20034;-73
2021/10/06 07:16:27;;;;;;;22.33;3.33;;;;;;;;;;4948428;29;20465;-73
2021/10/06 07:18:53;;;;;;;21.60;3.72;;;;;;;;;;4944482;29;20031;-73
2021/10/06 07:21:20;;;;;;;16.95;3.08;;;;;;;;;;4950032;29;20041;-74
2021/10/06 07:23:46;;;;;;;25.73;4.35;;;;;;;;;;4950618;29;20131;-74
2021/10/06 07:26:12;;;;;;;18.58;3.38;;;;;;;;;;4951176;28;20039;-74
2021/10/06 07:28:38;;;;;;;21.35;3.35;;;;;;;;;;4948965;28;20031;-74
2021/10/06 07:31:04;;;;;;;23.02;4.15;;;;;;;;;;4948623;29;20656;-74
2021/10/06 07:33:30;;;;;;;20.10;3.20;;;;;;;;;;4952006;28;20043;-74
2021/10/06 07:35:56;;;;;;;29.00;4.18;;;;;;;;;;4950521;29;20050;-75
2021/10/06 07:38:22;;;;;;;23.45;3.47;;;;;;;;;;4949143;29;20039;-73
2021/10/06 07:40:49;;;;;;;29.20;4.75;;;;;;;;;;4949875;29;20031;-75
2021/10/06 07:43:15;;;;;;;23.67;3.25;;;;;;;;;;4952196;29;20027;-74
2021/10/06 07:45:41;;;;;;;19.92;3.95;;;;;;;;;;4952562;29;20118;-74
2021/10/06 07:48:07;;;;;;;23.15;3.47;;;;;;;;;;4949926;28;20508;-75
2021/10/06 07:50:33;;;;;;;18.98;3.58;;;;;;;;;;4950838;29;20062;-74
2021/10/06 07:52:59;;;;;;;24.27;3.58;;;;;;;;;;4952313;28;20051;-74
2021/10/06 07:55:25;;;;;;;21.42;3.88;;;;;;;;;;4950551;29;20019;-75
2021/10/06 07:57:52;;;;;;;21.42;4.25;;;;;;;;;;4948022;28;20093;-74
2021/10/06 08:00:18;;;;;;;28.30;3.60;;;;;;;;;;4944323;29;20039;-75
2021/10/06 08:02:44;;;;;;;20.88;4.15;;;;;;;;;;4951513;29;20031;-76
2021/10/06 08:05:10;;;;;;;28.27;3.97;;;;;;;;;;4949956;28;20035;-74
2021/10/06 08:07:36;;;;;;;24.45;3.75;;;;;;;;;;4952098;28;20418;-73
2021/10/06 08:10:02;;;;;;;26.02;5.15;;;;;;;;;;4948851;28;20086;-75
2021/10/06 08:12:28;;;;;;;27.15;4.43;;;;;;;;;;4950827;29;20031;-75
2021/10/06 08:14:54;;;;;;;26.75;3.42;;;;;;;;;;4948511;28;20421;-74
2021/10/06 08:17:20;;;;;;;19.42;3.20;;;;;;;;;;4949792;28;20397;-75
2021/10/06 08:19:49;;;;;;;21.98;4.55;;;;;;;;;;4948875;28;20035;-76
2021/10/06 08:22:15;;;;;;;20.05;5.05;;;;;;;;;;4948824;29;20409;-74
2021/10/06 08:24:41;;;;;;;24.92;3.90;;;;;;;;;;4951825;29;20087;-74
2021/10/06 08:27:08;;;;;;;19.17;4.68;;;;;;;;;;4950757;28;20030;-75
2021/10/06 08:29:34;;;;;;;18.55;3.97;;;;;;;;;;4947684;29;20039;-74
2021/10/06 08:32:03;;;;;;;18.27;4.00;;;;;;;;;;4947818;29;20275;-75
2021/10/06 08:34:29;;;;;;;33.30;4.32;;;;;;;;;;4950197;28;20047;-74
2021/10/06 08:36:55;;;;;;;23.20;4.35;;;;;;;;;;4949605;28;20043;-75
2021/10/06 08:39:21;;;;;;;32.05;5.38;;;;;;;;;;4949499;28;20049;-74
2021/10/06 08:41:47;;;;;;;22.85;4.82;;;;;;;;;;4955327;28;20035;-76
2021/10/06 08:44:13;;;;;;;24.38;4.68;;;;;;;;;;4954086;28;20023;-74
2021/10/06 08:46:39;;;;;;;24.05;4.32;;;;;;;;;;4955867;28;20453;-74
2021/10/06 08:49:06;;;;;;;23.70;4.90;;;;;;;;;;4949934;29;20479;-74
2021/10/06 08:51:32;;;;;;;22.48;4.30;;;;;;;;;;4953114;28;20033;-74
2021/10/06 08:53:58;;;;;;;24.73;4.43;;;;;;;;;;4954534;28;20505;-75
2021/10/06 08:56:26;;;;;;;16.63;4.15;;;;;;;;;;4953930;28;20482;-74
2021/10/06 08:58:52;;;;;;;28.60;6.07;;;;;;;;;;4949349;29;20027;-76
2021/10/06 09:01:41;;;;;;;22.50;3.83;;;;;;;;;;4954778;28;20027;-75
2021/10/06 09:04:07;;;;;;;31.13;5.15;;;;;;;;;;4952112;28;20027;-74
2021/10/06 09:06:34;;;;;;;32.63;4.90;;;;;;;;;;4952303;28;20040;-75
2021/10/06 09:09:10;;;;;;;16.58;4.47;;;;;;;;;;4949316;29;20035;-73
2021/10/06 09:11:36;;;;;;;29.52;7.18;;;;;;;;;;4954183;28;20034;-74
2021/10/06 09:14:06;;;;;;;18.30;4.13;;;;;;;;;;4954304;28;20055;-73
2021/10/06 09:16:32;;;;;;;27.98;4.57;;;;;;;;;;4952134;28;20024;-73
2021/10/06 09:18:58;;;;;;;25.85;4.68;;;;;;;;;;4950992;29;20415;-71
2021/10/06 09:21:24;;;;;;;20.23;4.38;;;;;;;;;;4952688;28;20059;-74
2021/10/06 09:23:50;;;;;;;20.88;4.50;;;;;;;;;;4952391;28;20086;-73
2021/10/06 09:26:16;;;;;;;24.92;3.92;;;;;;;;;;4953600;29;20149;-73
2021/10/06 09:28:43;;;;;;;19.63;4.10;;;;;;;;;;4949805;28;20126;-73
2021/10/06 09:31:12;;;;;;;25.88;5.05;;;;;;;;;;4951354;29;20031;-73
2021/10/06 09:33:40;;;;;;;27.13;4.95;;;;;;;;;;4950529;28;20539;-73
2021/10/06 09:36:11;;;;;;;19.40;5.32;;;;;;;;;;4951271;29;20110;-73
2021/10/06 09:38:38;;;;;;;21.23;3.83;;;;;;;;;;4952115;29;20466;-74
2021/10/06 09:41:04;;;;;;;21.45;3.95;;;;;;;;;;4950414;28;20517;-74
2021/10/06 09:43:30;;;;;;;20.48;4.38;;;;;;;;;;4955194;28;20031;-74
2021/10/06 09:45:56;;;;;;;32.05;4.10;;;;;;;;;;4954851;28;20039;-74
2021/10/06 09:48:22;;;;;;;23.83;6.07;;;;;;;;;;4952414;29;20011;-74
2021/10/06 09:50:49;;;;;;;17.42;3.25;;;;;;;;;;4954541;28;20490;-74
2021/10/06 09:53:23;;;;;;;20.60;3.58;;;;;;;;;;4954775;29;20588;-74
2021/10/06 09:55:50;;;;;;;22.40;4.22;;;;;;;;;;4953089;29;20494;-72
2021/10/06 09:58:17;;;;;;;28.02;3.83;;;;;;;;;;4949116;28;20011;-74
2021/10/06 10:00:44;;;;;;;26.63;5.07;;;;;;;;;;4946705;28;20023;-73
2021/10/06 10:03:11;;;;;;;30.98;4.03;;;;;;;;;;4953529;29;20027;-74
2021/10/06 10:05:39;;;;;;;25.73;4.78;;;;;;;;;;4951647;29;20023;-74
2021/10/06 10:08:06;;;;;;;28.17;4.97;;;;;;;;;;4952917;29;20020;-75
2021/10/06 10:10:33;;;;;;;24.00;4.90;;;;;;;;;;4953459;28;20148;-73
2021/10/06 10:12:59;;;;;;;30.45;4.32;;;;;;;;;;4953508;28;20367;-74
2021/10/06 10:15:26;;;;;;;24.40;3.75;;;;;;;;;;4951745;29;20042;-75
2021/10/06 10:17:52;;;;;;;23.48;3.65;;;;;;;;;;4953312;28;20031;-72
2021/10/06 10:20:19;;;;;;;23.58;3.20;;;;;;;;;;4949976;28;20505;-75
2021/10/06 10:22:49;;;;;;;21.65;5.20;;;;;;;;;;4954113;28;20038;-75
2021/10/06 10:25:26;;;;;;;19.23;3.22;;;;;;;;;;4953222;28;20058;-74
2021/10/06 10:28:18;;;;;;;21.58;3.67;;;;;;;;;;4953199;28;20027;-75
2021/10/06 10:30:56;;;;;;;30.05;4.60;;;;;;;;;;4945837;28;20046;-74
2021/10/06 10:33:38;;;;;;;23.52;5.03;;;;;;;;;;4944361;28;20098;-74
2021/10/06 10:36:04;;;;;;;24.98;4.00;;;;;;;;;;4946962;28;20020;-76
2021/10/06 10:38:36;;;;;;;25.65;3.78;;;;;;;;;;4949655;28;20050;-76
2021/10/06 10:41:03;;;;;;;26.08;4.95;;;;;;;;;;4962862;28;20048;-77
2021/10/06 10:43:32;;;;;;;15.07;3.90;;;;;;;;;;4950594;29;20066;-76
2021/10/06 10:46:12;;;;;;;19.25;3.55;;;;;;;;;;4953217;28;20086;-74
2021/10/06 10:48:41;;;;;;;13.43;3.67;;;;;;;;;;4948654;28;20433;-75
2021/10/06 10:51:08;;;;;;;25.33;4.10;;;;;;;;;;4951852;28;20032;-76
2021/10/06 10:53:52;;;;;;;17.92;3.72;;;;;;;;;;4951407;28;20465;-74
2021/10/06 10:56:25;;;;;;;12.23;2.97;;;;;;;;;;4952474;28;20031;-74
2021/10/06 10:59:03;;;;;;;18.67;3.40;;;;;;;;;;4943554;29;20714;-77
2021/10/06 11:01:39;;;;;;;22.65;3.97;;;;;;;;;;4947940;28;20537;-74
2021/10/06 11:04:24;;;;;;;24.02;4.00;;;;;;;;;;4950556;29;20461;-75
2021/10/06 11:06:52;;;;;;;21.27;4.97;;;;;;;;;;4948500;28;20031;-78
2021/10/06 11:09:30;;;;;;;22.55;3.20;;;;;;;;;;4950615;28;20027;-76
2021/10/06 11:12:05;;;;;;;11.30;2.35;;;;;;;;;;4951632;28;20107;-76
2021/10/06 11:14:32;;;;;;;18.38;3.42;;;;;;;;;;4953060;29;20050;-76
2021/10/06 11:17:11;;;;;;;18.45;3.72;;;;;;;;;;4952028;28;20039;-77
2021/10/06 11:19:41;;;;;;;15.48;4.38;;;;;;;;;;4946427;28;20035;-76
2021/10/06 11:22:23;;;;;;;22.73;4.70;;;;;;;;;;4947965;29;20027;-77
2021/10/06 11:24:53;;;;;;;19.92;3.92;;;;;;;;;;4951731;29;20036;-74
2021/10/06 11:27:20;;;;;;;19.92;3.78;;;;;;;;;;4946492;28;20042;-76
2021/10/06 11:29:47;;;;;;;15.05;3.53;;;;;;;;;;4946297;29;20027;-75
2021/10/06 11:32:13;;;;;;;25.73;4.07;;;;;;;;;;4952158;28;20039;-72
2021/10/06 11:34:46;;;;;;;22.95;5.55;;;;;;;;;;4950281;28;20047;-75
2021/10/06 11:37:16;;;;;;;25.17;5.40;;;;;;;;;;4951157;28;20059;-74
2021/10/06 11:39:42;;;;;;;19.27;3.85;;;;;;;;;;4948534;28;20054;-76
2021/10/06 11:42:08;;;;;;;24.27;4.85;;;;;;;;;;4950917;28;20326;-74
2021/10/06 11:44:34;;;;;;;21.98;3.78;;;;;;;;;;4949760;29;20515;-75
2021/10/06 11:47:10;;;;;;;19.38;3.95;;;;;;;;;;4951586;29;20027;-74
2021/10/06 11:49:38;;;;;;;19.52;4.03;;;;;;;;;;4947640;29;20034;-74
2021/10/06 11:52:05;;;;;;;22.90;3.63;;;;;;;;;;4955582;28;20046;-76
2021/10/06 11:54:31;;;;;;;23.13;4.57;;;;;;;;;;4961814;28;20046;-76
2021/10/06 11:56:59;;;;;;;21.02;3.78;;;;;;;;;;4949036;28;20489;-76
2021/10/06 11:59:27;;;;;;;29.17;4.05;;;;;;;;;;4947112;28;20263;-76
2021/10/06 12:01:54;;;;;;;23.60;3.80;;;;;;;;;;4951088;29;20063;-74
2021/10/06 12:04:22;;;;;;;16.27;3.10;;;;;;;;;;4947996;29;20379;-73
2021/10/06 12:06:50;;;;;;;20.67;4.60;;;;;;;;;;4949561;29;20027;-75
2021/10/06 12:09:17;;;;;;;21.48;4.95;;;;;;;;;;4943274;28;20077;-75
2021/10/06 12:11:46;;;;;;;22.38;3.70;;;;;;;;;;4950155;28;20023;-75
2021/10/06 12:14:17;;;;;;;24.55;3.95;;;;;;;;;;4949960;28;20029;-75
2021/10/06 12:16:43;;;;;;;21.67;3.78;;;;;;;;;;4949186;29;20035;-75
2021/10/06 12:19:09;;;;;;;18.02;4.15;;;;;;;;;;4947346;28;23278;-75
2021/10/06 12:21:35;;;;;;;19.80;4.32;;;;;;;;;;4950161;28;20047;-75
2021/10/06 12:24:02;;;;;;;21.35;3.70;;;;;;;;;;4944219;28;20118;-75
2021/10/06 12:26:33;;;;;;;28.58;4.05;;;;;;;;;;4949538;29;20024;-74
2021/10/06 12:29:02;;;;;;;19.08;3.72;;;;;;;;;;4947546;28;20023;-74
2021/10/06 12:31:29;;;;;;;12.80;3.80;;;;;;;;;;4946385;29;20031;-75
2021/10/06 12:34:11;;;;;;;16.30;3.72;;;;;;;;;;4947993;28;20040;-76
2021/10/06 12:36:38;;;;;;;17.55;4.05;;;;;;;;;;4949369;28;20113;-76
2021/10/06 12:39:12;;;;;;;20.25;3.92;;;;;;;;;;4945126;29;20019;-76
2021/10/06 12:41:39;;;;;;;19.60;4.10;;;;;;;;;;4947755;28;20035;-76
2021/10/06 12:44:16;;;;;;;18.45;4.35;;;;;;;;;;4939963;29;20035;-75
2021/10/06 12:46:42;;;;;;;24.15;4.22;;;;;;;;;;4945883;29;20031;-74
2021/10/06 12:49:10;;;;;;;20.05;4.03;;;;;;;;;;4945548;28;20024;-75
2021/10/06 12:51:37;;;;;;;21.70;4.57;;;;;;;;;;4945324;29;20035;-75
2021/10/06 12:54:03;;;;;;;30.00;5.60;;;;;;;;;;4946147;29;20133;-76
2021/10/06 12:56:38;;;;;;;21.63;6.18;;;;;;;;;;4949475;29;20182;-75
2021/10/06 12:59:09;;;;;;;19.45;3.95;;;;;;;;;;4962660;28;20182;-75
2021/10/06 13:01:36;;;;;;;20.08;4.47;;;;;;;;;;4944140;28;20024;-76
2021/10/06 13:04:03;;;;;;;21.50;4.10;;;;;;;;;;4945948;29;20038;-75
2021/10/06 13:06:30;;;;;;;18.75;4.53;;;;;;;;;;4944078;28;20027;-75
2021/10/06 13:08:57;;;;;;;17.63;3.95;;;;;;;;;;4946218;28;20032;-74
2021/10/06 13:11:23;;;;;;;18.90;3.88;;;;;;;;;;4948912;28;20020;-74
2021/10/06 13:13:49;;;;;;;18.27;3.70;;;;;;;;;;4949311;28;20070;-76
2021/10/06 13:16:16;;;;;;;21.83;6.85;;;;;;;;;;4948670;29;20556;-74
2021/10/06 13:18:42;;;;;;;20.45;3.45;;;;;;;;;;4945909;29;20178;-74
2021/10/06 13:21:09;;;;;;;18.70;3.85;;;;;;;;;;4944215;28;20035;-75
2021/10/06 13:23:36;;;;;;;18.13;3.33;;;;;;;;;;4949247;28;20219;-75
2021/10/06 13:26:04;;;;;;;13.70;3.65;;;;;;;;;;4950345;28;20380;-74
2021/10/06 13:28:31;;;;;;;19.95;3.45;;;;;;;;;;4948946;28;20019;-75
2021/10/06 13:30:57;;;;;;;14.25;3.35;;;;;;;;;;4951450;29;20074;-75
2021/10/06 13:33:23;;;;;;;17.40;3.60;;;;;;;;;;4951590;29;20494;-74
2021/10/06 13:35:49;;;;;;;20.63;3.95;;;;;;;;;;4952199;28;20019;-75
2021/10/06 13:38:15;;;;;;;12.73;3.17;;;;;;;;;;4947409;28;20016;-75
2021/10/06 13:40:41;;;;;;;16.60;2.85;;;;;;;;;;4944717;28;20127;-74
2021/10/06 13:43:07;;;;;;;14.48;2.90;;;;;;;;;;4953786;29;20038;-74
2021/10/06 13:45:33;;;;;;;18.48;3.58;;;;;;;;;;4948795;29;20039;-74
2021/10/06 13:47:59;;;;;;;15.02;3.30;;;;;;;;;;4947756;29;20035;-76
2021/10/06 13:50:25;;;;;;;16.20;3.17;;;;;;;;;;4949355;28;20024;-74
2021/10/06 13:52:51;;;;;;;14.25;3.35;;;;;;;;;;4951102;28;20034;-74
2021/10/06 13:55:17;;;;;;;15.07;3.53;;;;;;;;;;4949189;28;20027;-74
2021/10/06 13:57:43;;;;;;;15.45;2.80;;;;;;;;;;4952484;29;20031;-75
2021/10/06 14:00:10;;;;;;;14.05;3.53;;;;;;;;;;4948250;28;20559;-71
2021/10/06 14:02:37;;;;;;;25.88;5.10;;;;;;;;;;4951409;28;20035;-74
2021/10/06 14:05:03;;;;;;;21.10;3.10;;;;;;;;;;4950747;28;20034;-73
2021/10/06 14:07:29;;;;;;;16.52;4.63;;;;;;;;;;4947821;28;20119;-75
2021/10/06 14:09:55;;;;;;;17.70;3.45;;;;;;;;;;4944746;28;20078;-75
2021/10/06 14:12:22;;;;;;;21.23;3.13;;;;;;;;;;4951228;29;20031;-76
2021/10/06 14:14:48;;;;;;;15.88;2.53;;;;;;;;;;4950704;29;20051;-74
2021/10/06 14:17:17;;;;;;;16.50;2.50;;;;;;;;;;4952463;29;20038;-75
2021/10/06 14:19:43;;;;;;;18.70;4.35;;;;;;;;;;4950080;29;20035;-75
2021/10/06 14:22:10;;;;;;;16.95;3.15;;;;;;;;;;4949765;28;20046;-74
2021/10/06 14:24:36;;;;;;;12.73;3.35;;;;;;;;;;4952276;29;20054;-74
2021/10/06 14:27:04;;;;;;;18.00;3.33;;;;;;;;;;4949591;28;20047;-75
2021/10/06 14:29:30;;;;;;;14.32;2.60;;;;;;;;;;4944591;28;20895;-74
2021/10/06 14:31:56;;;;;;;16.33;3.20;;;;;;;;;;4951129;29;20058;-75
2021/10/06 14:34:22;;;;;;;14.38;2.80;;;;;;;;;;4951250;28;20054;-74